createdAt,value
2019-03-21T00:00:19.127Z,69.52
2019-03-21T00:02:48.753Z,69.77
2019-03-21T00:05:18.591Z,69.96
2019-03-21T00:07:48.278Z,70.57
2019-03-21T00:11:01.669Z,70.76
2019-03-21T00:13:31.319Z,70.62
2019-03-21T00:16:02.444Z,70.98
2019-03-21T00:18:32.100Z,71.16
2019-03-21T00:21:01.788Z,71.25
2019-03-21T00:23:31.444Z,71.04
2019-03-21T00:26:01.181Z,70.88
2019-03-21T00:28:30.848Z,71.36
2019-03-21T00:31:00.492Z,71.26
2019-03-21T00:33:30.155Z,71.08
2019-03-21T00:35:59.784Z,70.86
2019-03-21T00:38:29.454Z,70.62
2019-03-21T00:40:59.094Z,70.40
2019-03-21T00:43:28.770Z,70.19
2019-03-21T00:45:58.405Z,70.13
2019-03-21T00:48:28.086Z,70.24
2019-03-21T00:50:57.721Z,70.21
2019-03-21T00:53:27.413Z,70.32
2019-03-21T00:55:57.111Z,70.71
2019-03-21T00:58:26.795Z,71.26
2019-03-21T01:00:57.187Z,71.63
2019-03-21T01:03:27.031Z,71.59
2019-03-21T01:05:56.717Z,71.40
2019-03-21T01:08:26.353Z,71.23
2019-03-21T01:10:55.996Z,71.05
2019-03-21T01:13:28.208Z,70.99
2019-03-21T01:15:57.872Z,70.82
2019-03-21T01:18:27.575Z,70.81
2019-03-21T01:20:57.231Z,70.72
2019-03-21T01:23:26.919Z,71.20
2019-03-21T01:25:57.196Z,71.23
2019-03-21T01:28:26.891Z,71.26
2019-03-21T01:30:56.569Z,71.19
2019-03-21T01:33:26.314Z,71.03
2019-03-21T01:35:55.971Z,71.06
2019-03-21T01:38:25.642Z,71.12
2019-03-21T01:40:55.454Z,71.02
2019-03-21T01:43:25.130Z,71.06
2019-03-21T01:45:54.808Z,71.08
2019-03-21T01:48:24.432Z,71.07
2019-03-21T01:50:54.192Z,71.24
2019-03-21T01:53:23.912Z,71.42
2019-03-21T01:55:53.588Z,72.00
2019-03-21T01:58:23.261Z,72.32
2019-03-21T02:00:53.052Z,72.59
2019-03-21T02:03:22.679Z,73.06
2019-03-21T02:05:52.365Z,73.05
2019-03-21T02:08:22.069Z,72.77
2019-03-21T02:10:51.715Z,72.56
2019-03-21T02:13:21.363Z,72.54
2019-03-21T02:15:51.169Z,72.67
2019-03-21T02:18:20.853Z,72.81
2019-03-21T02:20:50.532Z,73.02
2019-03-21T02:23:20.423Z,73.00
2019-03-21T02:25:50.083Z,72.92
2019-03-21T02:28:19.851Z,72.86
2019-03-21T02:30:49.596Z,72.77
2019-03-21T02:33:25.681Z,72.72
2019-03-21T02:35:55.291Z,72.57
2019-03-21T02:38:24.955Z,72.24
2019-03-21T02:40:54.758Z,71.96
2019-03-21T02:43:24.417Z,71.82
2019-03-21T02:45:54.100Z,71.73
2019-03-21T02:48:23.776Z,71.62
2019-03-21T02:50:53.429Z,71.57
2019-03-21T02:53:23.194Z,71.50
2019-03-21T02:55:53.060Z,71.40
2019-03-21T02:58:22.729Z,71.37
2019-03-21T03:00:52.361Z,71.31
2019-03-21T03:03:22.022Z,71.39
2019-03-21T03:05:51.746Z,71.41
2019-03-21T03:08:21.397Z,71.39
2019-03-21T03:10:52.563Z,71.35
2019-03-21T03:13:22.393Z,71.29
2019-03-21T03:15:52.067Z,71.47
2019-03-21T03:18:21.758Z,71.72
2019-03-21T03:20:51.446Z,71.68
2019-03-21T03:23:21.225Z,71.68
2019-03-21T03:25:51.663Z,71.60
2019-03-21T03:28:23.363Z,71.65
2019-03-21T03:30:54.249Z,71.89
2019-03-21T03:33:23.866Z,72.08
2019-03-21T03:35:53.520Z,72.56
2019-03-21T03:38:23.149Z,72.70
2019-03-21T03:40:55.507Z,73.17
2019-03-21T03:43:25.132Z,73.41
2019-03-21T03:45:54.815Z,73.21
2019-03-21T03:48:24.467Z,73.00
2019-03-21T03:50:54.163Z,73.21
2019-03-21T03:53:23.840Z,73.28
2019-03-21T03:55:53.681Z,73.48
2019-03-21T03:58:23.747Z,73.35
2019-03-21T04:00:53.498Z,73.37
2019-03-21T04:03:23.202Z,73.14
2019-03-21T04:05:52.947Z,72.87
2019-03-21T04:08:22.570Z,72.70
2019-03-21T04:10:52.250Z,72.61
2019-03-21T04:13:21.930Z,72.66
2019-03-21T04:15:53.778Z,72.68
2019-03-21T04:18:23.128Z,72.66
2019-03-21T04:20:52.856Z,72.69
2019-03-21T04:23:22.765Z,72.66
2019-03-21T04:25:55.545Z,72.86
2019-03-21T04:28:25.258Z,72.70
2019-03-21T04:30:55.062Z,72.68
2019-03-21T04:33:24.833Z,72.85
2019-03-21T04:35:54.479Z,72.74
2019-03-21T04:38:24.370Z,72.60
2019-03-21T04:40:54.003Z,72.51
2019-03-21T04:43:23.856Z,72.49
2019-03-21T04:46:02.798Z,72.56
2019-03-21T04:48:24.920Z,73.15
2019-03-21T04:50:54.560Z,73.58
2019-03-21T04:53:24.214Z,73.48
2019-03-21T04:55:54.036Z,73.77
2019-03-21T04:58:23.724Z,74.05
2019-03-21T05:00:53.454Z,73.98
2019-03-21T05:03:23.151Z,73.77
2019-03-21T05:05:52.825Z,73.51
2019-03-21T05:08:22.505Z,73.45
2019-03-21T05:10:52.144Z,73.34
2019-03-21T05:13:21.802Z,73.15
2019-03-21T05:15:51.584Z,72.99
2019-03-21T05:18:30.856Z,72.90
2019-03-21T05:21:00.632Z,73.07
2019-03-21T05:23:30.272Z,73.07
2019-03-21T05:25:59.958Z,72.95
2019-03-21T05:28:29.620Z,72.86
2019-03-21T05:31:02.822Z,73.14
2019-03-21T05:33:32.464Z,73.29
2019-03-21T05:36:02.100Z,73.27
2019-03-21T05:38:32.546Z,73.38
2019-03-21T05:41:02.205Z,73.23
2019-03-21T05:43:45.165Z,72.98
2019-03-21T05:46:25.667Z,72.81
2019-03-21T05:48:46.218Z,72.78
2019-03-21T05:51:15.875Z,72.80
2019-03-21T05:53:45.530Z,72.92
2019-03-21T05:56:15.197Z,72.88
2019-03-21T05:58:44.871Z,72.76
2019-03-21T06:01:14.667Z,72.96
2019-03-21T06:03:51.333Z,73.19
2019-03-21T06:06:47.631Z,73.33
2019-03-21T06:09:19.123Z,73.41
2019-03-21T06:11:52.543Z,73.33
2019-03-21T06:14:22.253Z,73.08
2019-03-21T06:16:51.915Z,72.84
2019-03-21T06:19:49.394Z,72.80
2019-03-21T06:22:29.701Z,73.18
2019-03-21T06:25:37.111Z,73.29
2019-03-21T06:28:06.835Z,73.11
2019-03-21T06:30:36.486Z,73.04
2019-03-21T06:33:06.162Z,73.21
2019-03-21T06:35:35.842Z,73.53
2019-03-21T06:38:05.530Z,73.68
2019-03-21T06:40:35.617Z,73.56
2019-03-21T06:43:05.275Z,73.35
2019-03-21T06:45:34.918Z,73.30
2019-03-21T06:48:04.670Z,73.22
2019-03-21T06:50:34.340Z,72.98
2019-03-21T06:53:04.015Z,72.75
2019-03-21T06:55:33.662Z,72.76
2019-03-21T06:58:03.476Z,72.67
2019-03-21T07:00:33.184Z,72.81
2019-03-21T07:03:02.926Z,72.92
2019-03-21T07:05:32.619Z,72.82
2019-03-21T07:08:02.290Z,72.70
2019-03-21T07:10:32.004Z,72.67
2019-03-21T07:13:01.671Z,72.57
2019-03-21T07:15:31.331Z,72.85
2019-03-21T07:18:01.006Z,72.81
2019-03-21T07:20:30.656Z,72.59
2019-03-21T07:23:00.351Z,72.37
2019-03-21T07:25:30.023Z,72.18
2019-03-21T07:27:59.685Z,71.92
2019-03-21T07:30:29.489Z,71.73
2019-03-21T07:32:59.189Z,71.49
2019-03-21T07:35:28.865Z,71.34
2019-03-21T07:37:58.566Z,70.94
2019-03-21T07:40:28.253Z,70.65
2019-03-21T07:42:57.919Z,70.62
2019-03-21T07:45:27.596Z,70.36
2019-03-21T07:47:57.256Z,70.10
2019-03-21T07:50:26.971Z,69.48
2019-03-21T07:52:56.632Z,68.95
2019-03-21T07:55:26.335Z,67.73
2019-03-21T07:57:56.278Z,65.35
2019-03-21T08:00:25.990Z,62.39
2019-03-21T08:02:55.658Z,57.62
2019-03-21T08:05:25.351Z,51.38
2019-03-21T08:07:55.040Z,46.08
2019-03-21T08:10:24.776Z,42.16
2019-03-21T08:12:54.433Z,38.63
2019-03-21T08:15:24.130Z,36.00
2019-03-21T08:17:53.776Z,33.07
2019-03-21T08:20:23.448Z,30.97
2019-03-21T08:22:53.119Z,29.52
2019-03-21T08:25:22.900Z,27.98
2019-03-21T08:27:52.618Z,27.40
2019-03-21T08:30:33.800Z,27.47
2019-03-21T08:33:03.519Z,27.52
2019-03-21T08:35:33.414Z,27.23
2019-03-21T08:38:03.081Z,26.68
2019-03-21T08:40:32.773Z,26.14
2019-03-21T08:43:02.421Z,25.76
2019-03-21T08:45:32.093Z,25.62
2019-03-21T08:48:01.781Z,25.11
2019-03-21T08:50:31.473Z,24.19
2019-03-21T08:53:01.123Z,24.18
2019-03-21T08:55:30.793Z,23.96
2019-03-21T08:58:00.571Z,24.64
2019-03-21T09:00:34.446Z,24.18
2019-03-21T09:03:01.758Z,24.77
2019-03-21T09:05:31.432Z,24.64
2019-03-21T09:08:01.116Z,24.32
2019-03-21T09:10:30.789Z,23.63
2019-03-21T09:13:00.458Z,24.14
2019-03-21T09:15:30.210Z,24.04
2019-03-21T09:17:59.900Z,23.65
2019-03-21T09:20:29.570Z,23.97
2019-03-21T09:22:59.309Z,24.60
2019-03-21T09:25:28.969Z,24.32
2019-03-21T09:28:02.972Z,24.33
2019-03-21T09:30:30.196Z,24.90
2019-03-21T09:32:59.898Z,24.99
2019-03-21T09:35:29.604Z,25.72
2019-03-21T09:37:59.312Z,25.83
2019-03-21T09:40:28.993Z,26.21
2019-03-21T09:42:58.673Z,26.12
2019-03-21T09:45:28.320Z,26.82
2019-03-21T09:47:57.997Z,27.29
2019-03-21T09:50:29.101Z,27.70
2019-03-21T09:52:58.857Z,27.93
2019-03-21T09:55:28.584Z,28.68
2019-03-21T09:57:58.495Z,29.30
2019-03-21T10:00:32.829Z,29.13
2019-03-21T10:03:02.719Z,29.04
2019-03-21T10:05:32.389Z,29.84
2019-03-21T10:08:02.116Z,30.34
2019-03-21T10:10:32.489Z,31.05
2019-03-21T10:13:02.213Z,30.68
2019-03-21T10:15:31.902Z,31.81
2019-03-21T10:18:01.664Z,32.74
2019-03-21T10:20:31.336Z,32.80
2019-03-21T10:23:01.084Z,32.98
2019-03-21T10:25:30.709Z,32.93
2019-03-21T10:28:00.440Z,33.82
2019-03-21T10:30:38.049Z,34.61
2019-03-21T10:33:08.916Z,34.59
2019-03-21T10:35:38.574Z,34.54
2019-03-21T10:38:08.829Z,34.88
2019-03-21T10:40:38.869Z,34.10
2019-03-21T10:43:10.510Z,34.46
2019-03-21T10:45:39.934Z,34.49
2019-03-21T10:48:09.628Z,34.79
2019-03-21T10:50:40.373Z,35.25
2019-03-21T10:53:10.266Z,35.05
2019-03-21T10:55:39.954Z,34.80
2019-03-21T10:58:09.930Z,34.80
2019-03-21T11:00:39.853Z,35.53
2019-03-21T11:03:09.629Z,35.77
2019-03-21T11:05:39.411Z,35.60
2019-03-21T11:08:09.267Z,35.46
2019-03-21T11:10:38.991Z,35.74
2019-03-21T11:13:08.690Z,35.86
2019-03-21T11:15:38.396Z,36.03
2019-03-21T11:18:08.124Z,35.91
2019-03-21T11:20:39.510Z,36.12
2019-03-21T11:23:09.796Z,36.39
2019-03-21T11:25:39.689Z,36.09
2019-03-21T11:28:09.773Z,36.33
2019-03-21T11:30:41.108Z,35.17
2019-03-21T11:33:10.990Z,36.32
2019-03-21T11:35:40.785Z,36.62
2019-03-21T11:38:10.688Z,36.26
2019-03-21T11:40:40.776Z,35.79
2019-03-21T11:43:12.785Z,35.77
2019-03-21T11:45:42.700Z,36.41
2019-03-21T11:48:12.477Z,35.97
2019-03-21T11:50:42.160Z,35.85
2019-03-21T11:53:11.998Z,36.71
2019-03-21T11:55:41.703Z,37.31
2019-03-21T11:58:11.437Z,36.82
2019-03-21T12:00:44.266Z,37.19
2019-03-21T12:03:13.533Z,37.85
2019-03-21T12:05:43.195Z,37.97
2019-03-21T12:08:12.915Z,38.52
2019-03-21T12:10:42.594Z,37.99
2019-03-21T12:13:12.365Z,38.25
2019-03-21T12:15:42.055Z,38.11
2019-03-21T12:18:11.762Z,38.11
2019-03-21T12:20:41.460Z,37.85
2019-03-21T12:23:11.223Z,37.67
2019-03-21T12:25:40.927Z,36.58
2019-03-21T12:28:10.795Z,36.08
2019-03-21T12:30:41.941Z,37.12
2019-03-21T12:33:11.665Z,37.42
2019-03-21T12:35:41.379Z,37.90
2019-03-21T12:38:11.238Z,38.01
2019-03-21T12:40:41.083Z,38.39
2019-03-21T12:43:10.917Z,37.33
2019-03-21T12:45:40.636Z,36.77
2019-03-21T12:48:10.387Z,37.26
2019-03-21T12:50:40.092Z,38.61
2019-03-21T12:53:09.890Z,38.88
2019-03-21T12:55:39.625Z,39.64
2019-03-21T12:58:09.338Z,39.38
2019-03-21T13:00:43.275Z,39.40
2019-03-21T13:03:13.050Z,39.30
2019-03-21T13:05:42.802Z,39.06
2019-03-21T13:08:12.588Z,39.22
2019-03-21T13:10:42.286Z,39.05
2019-03-21T13:13:12.210Z,40.09
2019-03-21T13:15:42.001Z,39.65
2019-03-21T13:18:11.682Z,39.83
2019-03-21T13:20:41.360Z,39.66
2019-03-21T13:23:11.158Z,39.36
2019-03-21T13:25:40.889Z,39.25
2019-03-21T13:28:10.620Z,39.51
2019-03-21T13:30:40.330Z,39.29
2019-03-21T13:33:09.992Z,39.82
2019-03-21T13:35:39.675Z,39.65
2019-03-21T13:38:09.518Z,39.61
2019-03-21T13:40:39.203Z,39.58
2019-03-21T13:43:11.177Z,39.66
2019-03-21T13:45:40.387Z,39.94
2019-03-21T13:48:10.161Z,40.07
2019-03-21T13:50:39.868Z,39.88
2019-03-21T13:53:18.528Z,39.65
2019-03-21T13:55:41.021Z,40.06
2019-03-21T13:58:10.810Z,39.96
2019-03-21T14:00:41.216Z,39.35
2019-03-21T14:03:11.047Z,39.52
2019-03-21T14:05:40.717Z,39.95
2019-03-21T14:08:10.731Z,40.14
2019-03-21T14:10:40.422Z,39.61
2019-03-21T14:13:10.098Z,39.93
2019-03-21T14:15:39.829Z,39.05
2019-03-21T14:18:09.521Z,39.05
2019-03-21T14:20:39.201Z,39.04
2019-03-21T14:23:17.068Z,39.20
2019-03-21T14:25:40.306Z,39.72
2019-03-21T14:28:09.994Z,40.05
2019-03-21T14:30:39.674Z,40.06
2019-03-21T14:33:09.379Z,40.04
2019-03-21T14:35:39.150Z,39.69
2019-03-21T14:38:08.844Z,39.83
2019-03-21T14:40:38.509Z,40.68
2019-03-21T14:43:08.225Z,41.03
2019-03-21T14:45:37.919Z,40.79
2019-03-21T14:48:07.611Z,40.88
2019-03-21T14:50:37.286Z,40.73
2019-03-21T14:53:06.959Z,40.61
2019-03-21T14:55:47.106Z,40.90
2019-03-21T14:58:08.026Z,40.64
2019-03-21T15:00:37.687Z,40.75
2019-03-21T15:03:07.382Z,40.67
2019-03-21T15:05:37.081Z,40.60
2019-03-21T15:08:06.766Z,40.55
2019-03-21T15:10:36.435Z,40.57
2019-03-21T15:13:06.194Z,41.00
2019-03-21T15:15:35.915Z,40.99
2019-03-21T15:18:05.602Z,41.21
2019-03-21T15:20:35.293Z,41.47
2019-03-21T15:23:04.962Z,41.58
2019-03-21T15:25:34.675Z,41.37
2019-03-21T15:28:04.378Z,40.97
2019-03-21T15:30:34.114Z,41.26
2019-03-21T15:33:03.834Z,41.52
2019-03-21T15:35:33.537Z,41.21
2019-03-21T15:38:03.230Z,41.25
2019-03-21T15:40:32.980Z,41.43
2019-03-21T15:43:02.668Z,41.68
2019-03-21T15:45:32.333Z,41.89
2019-03-21T15:48:02.038Z,42.11
2019-03-21T15:50:33.535Z,42.24
2019-03-21T15:53:03.966Z,42.57
2019-03-21T15:55:33.803Z,42.34
2019-03-21T15:58:03.523Z,42.39
2019-03-21T16:00:35.779Z,42.77
2019-03-21T16:03:06.376Z,42.80
2019-03-21T16:05:36.497Z,43.08
2019-03-21T16:08:08.899Z,43.03
2019-03-21T16:10:38.324Z,42.70
2019-03-21T16:13:08.021Z,42.82
2019-03-21T16:15:37.765Z,43.09
2019-03-21T16:18:07.471Z,43.21
2019-03-21T16:20:37.231Z,43.29
2019-03-21T16:23:07.853Z,43.47
2019-03-21T16:25:37.545Z,43.52
2019-03-21T16:28:07.225Z,43.81
2019-03-21T16:30:36.897Z,43.93
2019-03-21T16:33:06.612Z,43.97
2019-03-21T16:35:36.265Z,43.88
2019-03-21T16:38:05.973Z,44.03
2019-03-21T16:40:35.669Z,44.39
2019-03-21T16:43:05.967Z,44.78
2019-03-21T16:45:35.861Z,45.32
2019-03-21T16:48:08.780Z,45.94
2019-03-21T16:50:37.371Z,46.42
2019-03-21T16:53:07.079Z,46.95
2019-03-21T16:55:36.998Z,47.30
2019-03-21T16:58:06.744Z,47.39
2019-03-21T17:00:36.442Z,47.74
2019-03-21T17:03:06.351Z,48.10
2019-03-21T17:05:36.062Z,48.36
2019-03-21T17:08:11.190Z,48.84
2019-03-21T17:10:37.176Z,48.86
2019-03-21T17:13:07.464Z,49.06
2019-03-21T17:15:37.311Z,49.42
2019-03-21T17:18:07.057Z,50.00
2019-03-21T17:20:36.765Z,50.79
2019-03-21T17:23:07.033Z,51.21
2019-03-21T17:25:36.672Z,51.46
2019-03-21T17:28:06.689Z,51.73
2019-03-21T17:30:36.480Z,52.04
2019-03-21T17:33:06.180Z,52.14
2019-03-21T17:35:35.897Z,52.20
2019-03-21T17:38:05.616Z,52.22
2019-03-21T17:40:35.396Z,52.47
2019-03-21T17:43:05.085Z,52.75
2019-03-21T17:45:34.785Z,53.12
2019-03-21T17:48:04.655Z,53.30
2019-03-21T17:50:34.338Z,53.17
2019-03-21T17:53:04.169Z,53.23
2019-03-21T17:55:34.050Z,53.35
2019-03-21T17:58:03.794Z,53.43
2019-03-21T18:00:34.050Z,53.80
2019-03-21T18:03:04.345Z,53.91
2019-03-21T18:05:34.294Z,54.02
2019-03-21T18:08:04.340Z,54.47
2019-03-21T18:10:34.584Z,54.64
2019-03-21T18:13:05.336Z,54.88
2019-03-21T18:15:37.978Z,55.11
2019-03-21T18:18:07.754Z,55.15
2019-03-21T18:20:37.511Z,55.33
2019-03-21T18:23:07.391Z,55.63
2019-03-21T18:25:37.138Z,56.17
2019-03-21T18:28:08.764Z,56.63
2019-03-21T18:30:42.763Z,57.04
2019-03-21T18:33:12.975Z,57.36
2019-03-21T18:35:43.393Z,57.53
2019-03-21T18:38:13.190Z,57.68
2019-03-21T18:40:43.100Z,57.84
2019-03-21T18:43:13.089Z,58.07
2019-03-21T18:45:43.231Z,58.25
2019-03-21T18:48:13.247Z,58.21
2019-03-21T18:50:43.055Z,58.27
2019-03-21T18:53:13.034Z,58.55
2019-03-21T18:55:42.821Z,58.74
2019-03-21T18:58:12.820Z,59.06
2019-03-21T19:00:42.646Z,59.31
2019-03-21T19:03:12.510Z,59.37
2019-03-21T19:05:42.453Z,59.45
2019-03-21T19:08:12.319Z,59.61
2019-03-21T19:10:42.206Z,59.79
2019-03-21T19:13:12.246Z,59.98
2019-03-21T19:15:42.434Z,60.22
2019-03-21T19:18:12.240Z,60.44
2019-03-21T19:20:42.053Z,60.55
2019-03-21T19:23:11.883Z,60.70
2019-03-21T19:25:41.690Z,60.87
2019-03-21T19:28:11.634Z,60.94
2019-03-21T19:30:41.478Z,61.03
2019-03-21T19:33:11.646Z,61.24
2019-03-21T19:35:41.556Z,61.45
2019-03-21T19:38:11.385Z,61.54
2019-03-21T19:40:41.372Z,61.75
2019-03-21T19:43:11.227Z,61.94
2019-03-21T19:45:41.312Z,62.01
2019-03-21T19:48:11.277Z,62.11
2019-03-21T19:50:41.031Z,62.22
2019-03-21T19:53:10.965Z,62.36
2019-03-21T19:55:41.097Z,62.46
2019-03-21T19:58:10.960Z,62.43
2019-03-21T20:00:41.195Z,62.55
2019-03-21T20:03:10.982Z,62.68
2019-03-21T20:05:40.997Z,62.57
2019-03-21T20:08:11.055Z,62.72
2019-03-21T20:10:41.096Z,62.76
2019-03-21T20:13:11.131Z,63.13
2019-03-21T20:15:41.067Z,63.57
2019-03-21T20:18:10.984Z,63.59
2019-03-21T20:20:40.968Z,63.45
2019-03-21T20:23:11.077Z,63.47
2019-03-21T20:25:43.075Z,63.65
2019-03-21T20:28:12.671Z,63.68
2019-03-21T20:30:42.581Z,63.76
2019-03-21T20:33:12.303Z,63.75
2019-03-21T20:35:42.156Z,63.77
2019-03-21T20:38:12.086Z,63.84
2019-03-21T20:40:41.878Z,64.22
2019-03-21T20:43:11.752Z,64.35
2019-03-21T20:45:41.668Z,64.47
2019-03-21T20:48:11.585Z,64.63
2019-03-21T20:50:41.406Z,64.52
2019-03-21T20:53:11.203Z,64.47
2019-03-21T20:55:41.026Z,64.60
2019-03-21T20:58:11.035Z,64.73
2019-03-21T21:00:40.939Z,64.82
2019-03-21T21:03:10.860Z,64.92
2019-03-21T21:05:40.749Z,65.06
2019-03-21T21:08:10.775Z,65.03
2019-03-21T21:10:40.704Z,65.05
2019-03-21T21:13:10.737Z,65.01
2019-03-21T21:15:40.745Z,64.96
2019-03-21T21:18:10.911Z,65.02
2019-03-21T21:20:40.838Z,65.06
2019-03-21T21:23:11.197Z,65.19
2019-03-21T21:25:41.118Z,65.40
2019-03-21T21:28:11.164Z,65.73
2019-03-21T21:30:40.979Z,65.93
2019-03-21T21:33:11.150Z,65.81
2019-03-21T21:35:40.877Z,65.61
2019-03-21T21:38:10.694Z,65.55
2019-03-21T21:40:40.608Z,65.54
2019-03-21T21:43:10.595Z,65.66
2019-03-21T21:45:40.287Z,65.50
2019-03-21T21:48:10.195Z,65.71
2019-03-21T21:50:39.972Z,66.17
2019-03-21T21:53:09.924Z,66.10
2019-03-21T21:55:39.706Z,66.02
2019-03-21T21:58:09.465Z,65.85
2019-03-21T22:00:39.360Z,65.84
2019-03-21T22:03:09.097Z,65.95
2019-03-21T22:05:38.827Z,66.07
2019-03-21T22:08:08.765Z,66.14
2019-03-21T22:10:38.578Z,66.33
2019-03-21T22:13:08.357Z,66.32
2019-03-21T22:15:38.095Z,66.30
2019-03-21T22:18:07.988Z,66.56
2019-03-21T22:20:39.675Z,67.21
2019-03-21T22:23:09.613Z,67.36
2019-03-21T22:25:39.308Z,67.55
2019-03-21T22:28:10.195Z,67.81
2019-03-21T22:30:40.244Z,67.67
2019-03-21T22:33:09.959Z,67.64
2019-03-21T22:35:39.667Z,67.83
2019-03-21T22:38:09.341Z,67.94
2019-03-21T22:40:39.095Z,67.80
2019-03-21T22:43:08.812Z,67.63
2019-03-21T22:45:38.499Z,67.52
2019-03-21T22:48:08.232Z,67.41
2019-03-21T22:50:37.922Z,67.25
2019-03-21T22:53:07.633Z,67.31
2019-03-21T22:55:37.299Z,67.49
2019-03-21T22:58:06.979Z,67.64
2019-03-21T23:00:44.332Z,67.65
2019-03-21T23:03:14.008Z,67.70
2019-03-21T23:05:43.680Z,67.62
2019-03-21T23:08:13.566Z,67.50
2019-03-21T23:10:45.113Z,67.56
2019-03-21T23:13:14.767Z,67.66
2019-03-21T23:15:44.434Z,67.79
2019-03-21T23:18:14.118Z,67.75
2019-03-21T23:20:43.793Z,67.79
2019-03-21T23:23:13.607Z,68.02
2019-03-21T23:25:43.313Z,68.43
2019-03-21T23:28:13.037Z,68.61
2019-03-21T23:30:42.719Z,68.53
2019-03-21T23:33:12.436Z,68.57
2019-03-21T23:35:42.110Z,68.57
2019-03-21T23:38:11.842Z,68.54
2019-03-21T23:40:41.851Z,68.32
2019-03-21T23:43:11.546Z,68.47
2019-03-21T23:45:41.192Z,68.62
2019-03-21T23:48:11.013Z,68.63
2019-03-21T23:50:40.683Z,68.70
2019-03-21T23:53:10.361Z,68.92
2019-03-21T23:55:39.993Z,68.80
2019-03-21T23:58:09.708Z,68.74
